< < Back
Terminal Aerodrome Forecast


Current Version              Previous Versions:   1  2  3  4  5  6  7  8  9  

Terminal Aerodrome Forecast

231
FTUS42 KMLB 292140 AAA
TAFDAB
TAF AMD
KDAB 292140Z 2922/3018 08010KT P6SM VCTS SCT050CB SCT100 BKN250
      TEMPO 2922/2923 26010G15KT 5SM TSRA BKN050CB
     FM300100 VRB03KT P6SM FEW050 SCT250=

Latest METAR

854
SAUS80 KWBC 301800 RRB
MTRDAB
METAR KDAB 301753Z 07010KT 10SM FEW040TCU FEW080 FEW150 FEW250 34/22
A3005 RMK AO2 SLP176 TCU SW-W CB DSNT S SW-NW T03390222 10339
20250 58009 $


USA.gov is the U.S. government's official web portal to all federal, state and local government web resources and services.